Time;durP1;ratioP1;P1;durP2;ratioP2;P2;SDS_P1;SDS_P2;PMS_P1;PMS_P2;Temp;Humidity;BMP_temperature;BMP_pressure;BME280_temperature;BME280_humidity;BME280_pressure;Samples;Min_cycle;Max_cycle;Signal;HPM_P1;HPM_P2
2022/06/28 00:00:32;;;;;;;14.23;2.45;;;;;;;;;;5029635;28;20038;-67
2022/06/28 00:02:58;;;;;;;18.33;2.90;;;;;;;;;;5029422;28;20444;-68
2022/06/28 00:05:24;;;;;;;11.88;2.80;;;;;;;;;;5032985;28;20084;-67
2022/06/28 00:07:50;;;;;;;13.65;2.78;;;;;;;;;;5032172;28;20029;-67
2022/06/28 00:10:16;;;;;;;20.15;3.13;;;;;;;;;;5040440;28;20086;-67
2022/06/28 00:12:43;;;;;;;15.27;3.85;;;;;;;;;;5034765;28;20025;-66
2022/06/28 00:17:55;;;;;;;15.77;3.75;;;;;;;;;;5027010;28;20064;-67
2022/06/28 00:20:21;;;;;;;12.23;3.10;;;;;;;;;;5038138;28;20470;-67
2022/06/28 00:22:47;;;;;;;20.17;3.20;;;;;;;;;;5031469;28;20103;-66
2022/06/28 00:25:14;;;;;;;9.85;3.00;;;;;;;;;;5032938;28;20032;-67
2022/06/28 00:27:40;;;;;;;19.42;3.92;;;;;;;;;;5032415;28;20124;-68
2022/06/28 00:30:06;;;;;;;15.75;3.33;;;;;;;;;;5034994;28;20037;-66
2022/06/28 00:32:32;;;;;;;19.13;3.15;;;;;;;;;;5024202;28;20041;-66
2022/06/28 00:34:59;;;;;;;19.77;3.38;;;;;;;;;;5040286;28;20036;-68
2022/06/28 00:37:26;;;;;;;14.77;3.13;;;;;;;;;;5036511;28;20043;-67
2022/06/28 00:39:52;;;;;;;16.27;3.58;;;;;;;;;;5041981;28;20366;-68
2022/06/28 00:42:18;;;;;;;17.70;2.78;;;;;;;;;;5029898;28;20048;-68
2022/06/28 00:44:44;;;;;;;19.13;3.63;;;;;;;;;;5027812;28;20041;-67
2022/06/28 00:47:10;;;;;;;16.10;3.42;;;;;;;;;;5030140;28;20025;-68
2022/06/28 00:49:40;;;;;;;13.68;3.10;;;;;;;;;;5040660;28;20502;-68
2022/06/28 00:52:06;;;;;;;11.88;3.45;;;;;;;;;;5029639;28;20052;-67
2022/06/28 00:54:33;;;;;;;15.13;3.30;;;;;;;;;;5033888;28;20550;-67
2022/06/28 00:56:59;;;;;;;23.38;4.28;;;;;;;;;;5035751;28;20106;-68
2022/06/28 00:59:25;;;;;;;13.27;3.42;;;;;;;;;;5040039;28;20033;-67
2022/06/28 01:01:51;;;;;;;20.45;3.15;;;;;;;;;;5028923;28;20034;-67
2022/06/28 01:04:17;;;;;;;20.10;3.17;;;;;;;;;;5033516;28;20044;-67
2022/06/28 01:06:43;;;;;;;14.57;3.83;;;;;;;;;;5033585;28;20104;-66
2022/06/28 01:09:09;;;;;;;16.13;3.63;;;;;;;;;;5036288;28;20036;-67
2022/06/28 01:11:35;;;;;;;13.00;3.90;;;;;;;;;;5033247;28;20029;-67
2022/06/28 01:14:03;;;;;;;13.57;3.97;;;;;;;;;;5031855;28;20036;-68
2022/06/28 01:16:30;;;;;;;17.85;3.72;;;;;;;;;;5033089;28;20033;-68
2022/06/28 01:18:56;;;;;;;18.17;3.85;;;;;;;;;;5028777;28;20063;-67
2022/06/28 01:21:25;;;;;;;20.30;4.28;;;;;;;;;;5026641;28;20467;-67
2022/06/28 01:23:51;;;;;;;22.25;5.70;;;;;;;;;;5039732;28;20406;-66
2022/06/28 01:26:21;;;;;;;17.63;3.70;;;;;;;;;;5035491;28;20029;-68
2022/06/28 01:28:48;;;;;;;12.33;3.20;;;;;;;;;;5038267;28;20025;-67
2022/06/28 01:31:14;;;;;;;15.90;3.53;;;;;;;;;;5023783;28;20130;-65
2022/06/28 01:33:40;;;;;;;8.45;2.80;;;;;;;;;;5035358;28;20041;-65
2022/06/28 01:36:07;;;;;;;12.02;2.67;;;;;;;;;;5034936;28;20041;-67
2022/06/28 01:38:34;;;;;;;15.98;3.20;;;;;;;;;;5037793;28;20041;-66
2022/06/28 01:41:01;;;;;;;8.60;2.63;;;;;;;;;;5036807;28;20033;-67
2022/06/28 01:43:27;;;;;;;19.73;5.05;;;;;;;;;;5032601;28;20116;-68
2022/06/28 01:45:54;;;;;;;16.48;3.25;;;;;;;;;;5036224;28;20047;-68
2022/06/28 01:48:20;;;;;;;10.65;2.72;;;;;;;;;;5032758;28;20700;-68
2022/06/28 01:50:47;;;;;;;18.30;2.90;;;;;;;;;;5028627;28;20033;-68
2022/06/28 01:53:13;;;;;;;16.27;3.15;;;;;;;;;;5028531;28;20116;-68
2022/06/28 01:55:39;;;;;;;13.25;2.67;;;;;;;;;;5033829;28;20497;-67
2022/06/28 01:58:05;;;;;;;10.52;2.35;;;;;;;;;;5031307;28;20038;-67
2022/06/28 02:00:31;;;;;;;12.82;2.38;;;;;;;;;;5034601;28;20025;-68
2022/06/28 02:02:58;;;;;;;11.77;2.70;;;;;;;;;;5024144;28;20030;-66
2022/06/28 02:05:25;;;;;;;14.93;2.75;;;;;;;;;;5041193;28;20056;-66
2022/06/28 02:07:51;;;;;;;12.55;3.75;;;;;;;;;;5034319;28;20096;-67
2022/06/28 02:10:18;;;;;;;12.52;4.07;;;;;;;;;;5040396;28;20028;-66
2022/06/28 02:12:44;;;;;;;9.88;2.75;;;;;;;;;;5028236;28;20506;-67
2022/06/28 02:15:10;;;;;;;17.95;2.70;;;;;;;;;;5033696;28;20057;-67
2022/06/28 02:17:36;;;;;;;14.40;3.28;;;;;;;;;;5030247;28;20036;-67
2022/06/28 02:20:04;;;;;;;14.10;2.67;;;;;;;;;;5035627;28;20027;-66
2022/06/28 02:22:30;;;;;;;16.75;2.78;;;;;;;;;;5032528;28;20025;-67
2022/06/28 02:24:56;;;;;;;23.65;5.43;;;;;;;;;;5037229;28;20031;-68
2022/06/28 02:27:22;;;;;;;14.05;2.47;;;;;;;;;;5037799;28;20064;-67
2022/06/28 02:29:48;;;;;;;17.10;3.22;;;;;;;;;;5037524;28;20047;-67
2022/06/28 02:32:14;;;;;;;16.17;3.10;;;;;;;;;;5033262;28;20084;-68
2022/06/28 02:40:22;;;;;;;15.07;3.10;;;;;;;;;;5037134;28;20039;-68
2022/06/28 02:42:48;;;;;;;16.98;3.38;;;;;;;;;;5031740;28;20623;-68
2022/06/28 02:45:14;;;;;;;14.43;2.70;;;;;;;;;;5040751;28;20497;-68
2022/06/28 02:47:40;;;;;;;15.63;2.70;;;;;;;;;;5040800;28;20044;-68
2022/06/28 02:50:07;;;;;;;18.20;3.28;;;;;;;;;;5039456;28;20040;-68
2022/06/28 02:52:33;;;;;;;19.35;4.07;;;;;;;;;;5030000;28;20414;-68
2022/06/28 02:54:59;;;;;;;17.52;4.53;;;;;;;;;;5015422;28;20458;-67
2022/06/28 02:57:25;;;;;;;12.88;3.03;;;;;;;;;;5040309;28;20198;-68
2022/06/28 02:59:51;;;;;;;17.80;2.95;;;;;;;;;;5039713;28;20037;-67
2022/06/28 03:02:17;;;;;;;16.77;2.70;;;;;;;;;;5033941;28;20090;-67
2022/06/28 03:04:43;;;;;;;16.17;3.20;;;;;;;;;;5029428;28;20057;-67
2022/06/28 03:07:09;;;;;;;16.27;3.05;;;;;;;;;;5047428;28;20043;-67
2022/06/28 03:09:36;;;;;;;15.25;3.60;;;;;;;;;;5037966;28;20051;-67
2022/06/28 03:12:04;;;;;;;15.20;4.40;;;;;;;;;;5033710;28;20041;-67
2022/06/28 03:14:30;;;;;;;19.42;3.67;;;;;;;;;;5046744;28;20045;-68
2022/06/28 03:16:56;;;;;;;18.20;4.22;;;;;;;;;;5023716;28;20044;-67
2022/06/28 03:19:23;;;;;;;23.10;4.40;;;;;;;;;;5033107;28;20025;-67
2022/06/28 03:21:49;;;;;;;14.85;4.28;;;;;;;;;;5027153;28;20120;-67
2022/06/28 03:24:15;;;;;;;13.05;3.50;;;;;;;;;;5029161;28;20069;-68
2022/06/28 03:26:41;;;;;;;13.57;4.45;;;;;;;;;;5038184;28;20659;-66
2022/06/28 03:29:07;;;;;;;19.70;4.18;;;;;;;;;;5038663;28;20218;-67
2022/06/28 03:31:33;;;;;;;17.73;3.97;;;;;;;;;;5030405;28;20073;-67
2022/06/28 03:33:59;;;;;;;11.43;3.60;;;;;;;;;;5038790;28;20083;-67
2022/06/28 03:36:25;;;;;;;15.63;4.55;;;;;;;;;;5032333;28;20029;-67
2022/06/28 03:38:51;;;;;;;21.20;4.10;;;;;;;;;;5038844;28;20033;-68
2022/06/28 03:41:22;;;;;;;11.35;3.47;;;;;;;;;;5033088;28;20029;-66
2022/06/28 03:43:51;;;;;;;18.88;4.03;;;;;;;;;;5035532;28;20033;-67
2022/06/28 03:46:17;;;;;;;15.73;3.92;;;;;;;;;;5031185;28;20068;-66
2022/06/28 03:48:44;;;;;;;18.15;3.80;;;;;;;;;;5032041;28;20071;-66
2022/06/28 03:51:10;;;;;;;10.85;3.92;;;;;;;;;;5032971;28;20029;-68
2022/06/28 03:53:36;;;;;;;17.77;3.20;;;;;;;;;;5039055;28;20100;-67
2022/06/28 03:56:02;;;;;;;12.43;4.07;;;;;;;;;;5036358;28;20186;-67
2022/06/28 03:58:28;;;;;;;14.82;3.60;;;;;;;;;;5036450;28;20037;-67
2022/06/28 04:00:54;;;;;;;22.77;4.78;;;;;;;;;;5037851;28;20025;-66
2022/06/28 04:03:20;;;;;;;16.10;3.72;;;;;;;;;;5029696;28;20370;-66
2022/06/28 04:05:46;;;;;;;17.38;4.40;;;;;;;;;;5035126;28;20053;-67
2022/06/28 04:08:12;;;;;;;15.45;3.88;;;;;;;;;;5028030;28;20040;-67
2022/06/28 04:10:38;;;;;;;13.50;3.33;;;;;;;;;;5025933;28;20032;-67
2022/06/28 04:13:05;;;;;;;13.35;3.47;;;;;;;;;;5030372;28;20378;-67
2022/06/28 04:15:31;;;;;;;16.67;3.47;;;;;;;;;;5037589;28;20054;-67
2022/06/28 04:17:58;;;;;;;12.02;3.55;;;;;;;;;;5030684;28;20065;-67
2022/06/28 04:20:23;;;;;;;13.95;2.88;;;;;;;;;;5037524;28;20021;-67
2022/06/28 04:22:50;;;;;;;12.65;3.47;;;;;;;;;;5032689;28;20479;-67
2022/06/28 04:25:16;;;;;;;11.38;3.33;;;;;;;;;;5032229;28;20556;-67
2022/06/28 04:27:42;;;;;;;14.05;3.35;;;;;;;;;;5029539;28;20873;-67
2022/06/28 04:30:11;;;;;;;11.13;3.30;;;;;;;;;;5034991;28;20256;-67
2022/06/28 04:32:37;;;;;;;12.98;2.72;;;;;;;;;;5026759;28;20336;-68
2022/06/28 04:35:04;;;;;;;12.93;2.88;;;;;;;;;;5032768;28;20032;-68
2022/06/28 04:37:30;;;;;;;15.07;2.22;;;;;;;;;;5030386;28;20033;-68
2022/06/28 04:39:56;;;;;;;18.67;2.70;;;;;;;;;;5031494;28;20646;-68
2022/06/28 04:42:22;;;;;;;7.72;2.35;;;;;;;;;;5029020;28;20041;-67
2022/06/28 04:44:48;;;;;;;15.77;3.65;;;;;;;;;;5037343;28;20336;-67
2022/06/28 04:47:14;;;;;;;13.25;2.38;;;;;;;;;;5033554;28;20147;-67
2022/06/28 04:49:40;;;;;;;13.35;2.60;;;;;;;;;;5029821;28;20025;-67
2022/06/28 04:52:06;;;;;;;12.05;2.58;;;;;;;;;;5032788;28;20041;-66
2022/06/28 04:54:32;;;;;;;14.85;3.55;;;;;;;;;;5029527;28;20037;-66
2022/06/28 04:56:58;;;;;;;27.27;3.63;;;;;;;;;;5028793;28;20123;-65
2022/06/28 04:59:24;;;;;;;14.75;2.45;;;;;;;;;;5033093;28;20119;-66
2022/06/28 05:01:50;;;;;;;10.07;2.22;;;;;;;;;;5023302;28;20494;-66
2022/06/28 05:04:16;;;;;;;11.82;2.60;;;;;;;;;;5034797;28;20475;-66
2022/06/28 05:06:42;;;;;;;16.52;2.83;;;;;;;;;;5029034;28;20029;-65
2022/06/28 05:09:08;;;;;;;18.42;3.38;;;;;;;;;;5033988;28;20040;-66
2022/06/28 05:11:34;;;;;;;16.75;2.65;;;;;;;;;;5030753;28;20120;-65
2022/06/28 05:14:00;;;;;;;13.38;2.88;;;;;;;;;;5033638;28;20055;-66
2022/06/28 05:16:27;;;;;;;15.68;3.15;;;;;;;;;;5026658;28;20049;-66
2022/06/28 05:18:53;;;;;;;7.82;2.38;;;;;;;;;;5045168;28;20530;-65
2022/06/28 05:21:19;;;;;;;15.27;2.55;;;;;;;;;;5031193;28;20037;-66
2022/06/28 05:23:45;;;;;;;18.13;2.80;;;;;;;;;;5031258;28;20199;-66
2022/06/28 05:26:11;;;;;;;20.55;3.42;;;;;;;;;;5034583;28;20115;-73
2022/06/28 05:28:37;;;;;;;15.57;3.28;;;;;;;;;;5047006;28;20033;-72
2022/06/28 05:31:03;;;;;;;14.70;3.35;;;;;;;;;;5040488;28;20033;-73
2022/06/28 05:33:30;;;;;;;18.67;3.63;;;;;;;;;;5042999;28;20475;-72
2022/06/28 05:35:56;;;;;;;15.27;2.85;;;;;;;;;;5035503;28;20099;-73
2022/06/28 05:38:22;;;;;;;23.55;3.47;;;;;;;;;;5034613;28;20032;-72
2022/06/28 05:40:48;;;;;;;19.63;3.38;;;;;;;;;;5032824;28;20029;-71
2022/06/28 05:43:15;;;;;;;19.60;3.05;;;;;;;;;;5027934;28;20025;-72
2022/06/28 05:45:41;;;;;;;16.63;3.05;;;;;;;;;;5034605;28;20037;-73
2022/06/28 05:48:07;;;;;;;17.73;2.95;;;;;;;;;;5034174;28;20478;-73
2022/06/28 05:50:33;;;;;;;16.75;3.55;;;;;;;;;;5034311;28;20039;-72
2022/06/28 05:52:59;;;;;;;20.75;3.85;;;;;;;;;;5032150;28;20043;-73
2022/06/28 05:55:25;;;;;;;16.92;3.47;;;;;;;;;;5036720;28;20115;-72
2022/06/28 05:57:51;;;;;;;16.60;2.70;;;;;;;;;;5027525;28;20530;-71
2022/06/28 06:00:17;;;;;;;17.23;3.13;;;;;;;;;;5035869;28;20030;-71
2022/06/28 06:02:44;;;;;;;17.63;3.40;;;;;;;;;;5043807;28;20020;-71
2022/06/28 06:05:11;;;;;;;16.30;3.40;;;;;;;;;;5045033;28;20041;-71
2022/06/28 06:07:37;;;;;;;21.77;3.00;;;;;;;;;;5047842;28;20336;-70
2022/06/28 06:10:03;;;;;;;16.40;3.42;;;;;;;;;;5043061;28;20033;-70
2022/06/28 06:12:30;;;;;;;18.02;3.85;;;;;;;;;;5028544;28;20056;-70
2022/06/28 06:14:56;;;;;;;19.33;3.85;;;;;;;;;;5028904;28;20490;-72
2022/06/28 06:17:22;;;;;;;15.25;3.45;;;;;;;;;;5033597;28;20498;-72
2022/06/28 06:19:48;;;;;;;20.20;3.45;;;;;;;;;;5032129;28;20040;-72
2022/06/28 06:22:14;;;;;;;18.80;3.65;;;;;;;;;;5031656;28;20424;-72
2022/06/28 06:24:40;;;;;;;23.35;4.50;;;;;;;;;;5031368;28;20066;-71
2022/06/28 06:27:06;;;;;;;14.50;3.65;;;;;;;;;;5029685;28;20135;-72
2022/06/28 06:29:32;;;;;;;16.48;3.85;;;;;;;;;;5029670;28;20034;-71
2022/06/28 06:31:58;;;;;;;12.82;3.25;;;;;;;;;;5032253;28;20064;-72
2022/06/28 06:34:24;;;;;;;12.68;3.65;;;;;;;;;;5032064;28;20447;-71
2022/06/28 06:36:50;;;;;;;19.95;4.55;;;;;;;;;;5027335;28;20099;-72
2022/06/28 06:39:16;;;;;;;17.38;3.63;;;;;;;;;;5038743;28;20471;-72
2022/06/28 06:41:42;;;;;;;15.82;3.47;;;;;;;;;;5038620;28;20083;-70
2022/06/28 06:44:09;;;;;;;22.98;4.20;;;;;;;;;;5043515;28;20083;-71
2022/06/28 06:46:36;;;;;;;17.10;3.50;;;;;;;;;;5043892;28;20035;-72
2022/06/28 06:49:02;;;;;;;21.52;3.97;;;;;;;;;;5042921;28;20044;-71
2022/06/28 06:51:30;;;;;;;19.52;4.30;;;;;;;;;;5037145;28;20030;-72
2022/06/28 06:53:56;;;;;;;22.13;4.65;;;;;;;;;;5037837;28;20102;-72
2022/06/28 06:56:22;;;;;;;22.08;4.55;;;;;;;;;;5037482;28;20033;-72
2022/06/28 06:58:48;;;;;;;22.13;4.35;;;;;;;;;;5031181;28;20038;-72
2022/06/28 07:01:15;;;;;;;15.75;4.07;;;;;;;;;;5034389;28;20018;-71
2022/06/28 07:03:44;;;;;;;17.70;4.68;;;;;;;;;;5034758;28;20025;-72
2022/06/28 07:06:12;;;;;;;16.38;3.97;;;;;;;;;;5032690;28;20494;-72
2022/06/28 07:08:38;;;;;;;18.33;3.70;;;;;;;;;;5034290;28;20104;-73
2022/06/28 07:11:04;;;;;;;15.73;3.67;;;;;;;;;;5015192;28;20065;-72
2022/06/28 07:13:30;;;;;;;18.02;3.92;;;;;;;;;;5032559;28;20115;-71
2022/06/28 07:15:56;;;;;;;18.20;4.05;;;;;;;;;;5033064;28;20025;-72
2022/06/28 07:18:22;;;;;;;18.95;4.00;;;;;;;;;;5031995;28;20026;-72
2022/06/28 07:20:51;;;;;;;16.92;3.90;;;;;;;;;;5031818;28;20112;-73
2022/06/28 07:23:17;;;;;;;22.90;4.32;;;;;;;;;;5032056;28;20051;-71
2022/06/28 07:25:43;;;;;;;20.23;4.05;;;;;;;;;;5015830;28;20026;-72
2022/06/28 07:28:10;;;;;;;19.40;3.72;;;;;;;;;;5021278;28;20034;-72
2022/06/28 07:30:37;;;;;;;16.13;3.55;;;;;;;;;;5022667;28;20029;-72
2022/06/28 07:33:03;;;;;;;12.23;2.80;;;;;;;;;;5032766;28;20045;-72
2022/06/28 07:35:29;;;;;;;15.23;3.08;;;;;;;;;;5031552;28;20030;-73
2022/06/28 07:37:55;;;;;;;12.55;3.40;;;;;;;;;;5033306;28;20053;-72
2022/06/28 07:40:21;;;;;;;11.82;2.92;;;;;;;;;;5035249;28;20018;-72
2022/06/28 07:42:47;;;;;;;12.35;2.75;;;;;;;;;;5038318;28;20082;-71
2022/06/28 07:45:14;;;;;;;11.13;2.47;;;;;;;;;;5038878;28;20471;-72
2022/06/28 07:47:40;;;;;;;12.38;2.60;;;;;;;;;;5041182;28;20069;-67
2022/06/28 07:52:51;;;;;;;13.52;3.28;;;;;;;;;;5041654;28;20081;-71
2022/06/28 07:55:17;;;;;;;14.13;2.88;;;;;;;;;;5038209;28;20030;-71
2022/06/28 07:57:43;;;;;;;13.10;3.42;;;;;;;;;;5033627;28;20022;-71
2022/06/28 08:00:10;;;;;;;17.40;3.25;;;;;;;;;;5036891;28;20033;-71
2022/06/28 08:02:36;;;;;;;12.43;2.60;;;;;;;;;;5031760;28;20094;-73
2022/06/28 08:05:03;;;;;;;16.75;3.40;;;;;;;;;;5047989;28;20045;-70
2022/06/28 08:07:29;;;;;;;14.85;2.53;;;;;;;;;;5045479;28;20469;-72
2022/06/28 08:09:55;;;;;;;12.80;2.50;;;;;;;;;;5010958;28;20063;-73
2022/06/28 08:12:21;;;;;;;16.35;3.15;;;;;;;;;;5017399;28;20026;-73
2022/06/28 08:14:47;;;;;;;11.07;3.17;;;;;;;;;;5031834;28;20025;-72
2022/06/28 08:17:13;;;;;;;9.90;2.33;;;;;;;;;;5029872;28;20037;-72
2022/06/28 08:19:39;;;;;;;11.10;2.70;;;;;;;;;;5030368;28;20124;-72
2022/06/28 08:22:06;;;;;;;13.27;2.63;;;;;;;;;;5030513;28;20056;-73
2022/06/28 08:24:32;;;;;;;13.65;3.20;;;;;;;;;;5018819;28;20121;-71
2022/06/28 08:26:58;;;;;;;10.85;2.83;;;;;;;;;;5011947;28;20049;-71
2022/06/28 08:29:24;;;;;;;11.40;2.60;;;;;;;;;;5031424;28;20041;-72
2022/06/28 08:31:50;;;;;;;15.88;2.72;;;;;;;;;;5031924;28;20041;-72
2022/06/28 08:34:16;;;;;;;19.52;3.47;;;;;;;;;;5032011;28;20031;-72
2022/06/28 08:36:42;;;;;;;13.38;2.65;;;;;;;;;;5032641;28;20470;-72
2022/06/28 08:39:08;;;;;;;15.60;3.78;;;;;;;;;;5032180;28;20034;-72
2022/06/28 08:41:34;;;;;;;13.52;2.67;;;;;;;;;;5051103;28;20033;-73
2022/06/28 08:44:10;;;;;;;11.55;2.70;;;;;;;;;;5102142;27;20381;-72
2022/06/28 08:46:37;;;;;;;13.43;2.95;;;;;;;;;;5081366;28;20038;-69
2022/06/28 08:49:04;;;;;;;15.05;3.10;;;;;;;;;;5094916;28;20047;-71
2022/06/28 08:51:31;;;;;;;14.93;3.10;;;;;;;;;;5077886;28;20791;-71
2022/06/28 08:54:01;;;;;;;11.45;2.67;;;;;;;;;;5086823;28;20012;-72
2022/06/28 08:56:28;;;;;;;9.13;2.78;;;;;;;;;;5065961;28;20060;-72
2022/06/28 08:58:56;;;;;;;16.40;3.20;;;;;;;;;;5078847;28;20435;-72
2022/06/28 09:01:22;;;;;;;13.80;2.85;;;;;;;;;;5083194;28;20073;-71
2022/06/28 09:03:51;;;;;;;12.05;2.85;;;;;;;;;;5084922;28;20355;-74
2022/06/28 09:06:17;;;;;;;9.70;2.70;;;;;;;;;;5069468;28;20020;-72
2022/06/28 09:08:43;;;;;;;11.02;3.08;;;;;;;;;;5078778;28;20497;-72
2022/06/28 09:11:09;;;;;;;13.35;2.22;;;;;;;;;;5069986;28;20474;-72
2022/06/28 09:13:35;;;;;;;15.38;3.10;;;;;;;;;;5086249;28;20561;-73
2022/06/28 09:16:03;;;;;;;11.65;2.35;;;;;;;;;;5085611;28;20107;-73
2022/06/28 09:18:34;;;;;;;10.65;2.78;;;;;;;;;;5086334;28;20032;-73
2022/06/28 09:21:01;;;;;;;13.32;3.00;;;;;;;;;;5086133;28;20059;-72
2022/06/28 09:23:38;;;;;;;14.00;2.88;;;;;;;;;;5068244;28;20024;-73
2022/06/28 09:26:09;;;;;;;14.43;2.60;;;;;;;;;;5085847;28;20492;-73
2022/06/28 09:28:36;;;;;;;11.32;2.60;;;;;;;;;;5085456;28;20015;-72
2022/06/28 09:31:15;;;;;;;13.63;2.75;;;;;;;;;;5068331;28;20036;-72
2022/06/28 09:33:46;;;;;;;24.58;3.38;;;;;;;;;;5087089;28;20048;-73
2022/06/28 09:36:12;;;;;;;;;;;;;;;;;;5078768;28;20085;-71
2022/06/28 09:38:38;;;;;;;12.32;2.85;;;;;;;;;;5072644;28;20106;-71
2022/06/28 09:41:04;;;;;;;15.65;2.83;;;;;;;;;;5080216;28;20029;-69
2022/06/28 09:43:34;;;;;;;14.00;2.67;;;;;;;;;;5070925;28;20080;-71
2022/06/28 09:46:04;;;;;;;8.60;2.33;;;;;;;;;;5070431;28;20033;-71
2022/06/28 09:48:37;;;;;;;12.73;2.67;;;;;;;;;;5074535;28;20033;-70
2022/06/28 09:51:04;;;;;;;12.27;2.45;;;;;;;;;;5074698;28;20033;-71
2022/06/28 09:53:32;;;;;;;11.15;2.67;;;;;;;;;;5053478;28;20468;-72
2022/06/28 09:56:01;;;;;;;14.73;2.50;;;;;;;;;;5046795;28;20006;-72
2022/06/28 09:58:27;;;;;;;11.45;2.53;;;;;;;;;;5060723;28;20029;-72
2022/06/28 10:00:54;;;;;;;6.30;2.05;;;;;;;;;;5030066;28;20046;-72
2022/06/28 10:03:20;;;;;;;9.70;2.38;;;;;;;;;;5040921;28;20030;-72
2022/06/28 10:05:47;;;;;;;10.63;2.75;;;;;;;;;;5038242;28;20021;-71
2022/06/28 10:08:13;;;;;;;10.73;2.50;;;;;;;;;;5039684;28;20053;-71
2022/06/28 10:10:41;;;;;;;13.75;2.80;;;;;;;;;;5031688;28;20024;-72
2022/06/28 10:16:03;;;;;;;11.05;2.95;;;;;;;;;;5027724;28;20036;-71
2022/06/28 10:18:30;;;;;;;13.27;2.65;;;;;;;;;;5052601;28;20107;-72
2022/06/28 10:20:56;;;;;;;14.90;2.92;;;;;;;;;;5017078;28;20490;-72
2022/06/28 10:23:29;;;;;;;8.80;2.17;;;;;;;;;;5015855;28;20453;-73
2022/06/28 10:26:02;;;;;;;12.23;2.53;;;;;;;;;;5043671;28;20013;-71
2022/06/28 10:28:29;;;;;;;8.80;2.08;;;;;;;;;;5044087;28;20036;-71
2022/06/28 10:31:13;;;;;;;14.10;2.45;;;;;;;;;;5043555;28;20016;-72
2022/06/28 10:33:42;;;;;;;10.88;2.83;;;;;;;;;;5037954;28;20033;-71
2022/06/28 10:36:13;;;;;;;9.25;2.40;;;;;;;;;;5048112;28;20494;-72
2022/06/28 10:38:39;;;;;;;9.75;2.40;;;;;;;;;;5048139;28;20033;-68
2022/06/28 10:41:12;;;;;;;10.60;2.70;;;;;;;;;;5050432;28;20029;-72
2022/06/28 10:43:45;;;;;;;10.52;1.98;;;;;;;;;;5061783;28;20131;-72
2022/06/28 10:46:11;;;;;;;7.03;1.73;;;;;;;;;;5064030;28;20036;-71
2022/06/28 10:48:50;;;;;;;7.60;1.80;;;;;;;;;;5056092;28;20029;-72
2022/06/28 10:51:16;;;;;;;9.32;2.30;;;;;;;;;;5068443;28;20059;-71
2022/06/28 10:53:51;;;;;;;9.38;2.38;;;;;;;;;;5066986;28;20116;-72
2022/06/28 10:56:18;;;;;;;13.50;2.25;;;;;;;;;;5063953;28;20037;-71
2022/06/28 10:59:05;;;;;;;11.88;2.65;;;;;;;;;;5048370;28;20320;-71
2022/06/28 11:01:40;;;;;;;14.20;2.22;;;;;;;;;;5071543;28;20116;-72
2022/06/28 11:04:10;;;;;;;9.52;1.88;;;;;;;;;;5071579;28;20037;-71
2022/06/28 11:06:43;;;;;;;9.70;2.17;;;;;;;;;;5071824;28;20025;-71
2022/06/28 11:09:11;;;;;;;6.20;1.80;;;;;;;;;;5078540;28;20008;-72
2022/06/28 11:11:58;;;;;;;7.55;2.00;;;;;;;;;;5079877;28;20498;-70
2022/06/28 11:14:28;;;;;;;8.77;2.08;;;;;;;;;;5071506;28;20486;-70
2022/06/28 11:16:55;;;;;;;6.07;1.70;;;;;;;;;;5070788;28;20090;-72
2022/06/28 11:19:21;;;;;;;13.52;2.33;;;;;;;;;;5066862;28;20032;-72
2022/06/28 11:21:47;;;;;;;8.02;1.98;;;;;;;;;;5067992;28;20032;-72
2022/06/28 11:24:13;;;;;;;6.93;1.73;;;;;;;;;;5069965;28;20028;-70
2022/06/28 11:29:25;;;;;;;7.35;2.08;;;;;;;;;;5059112;28;20048;-68
2022/06/28 11:31:51;;;;;;;9.30;1.90;;;;;;;;;;5058010;28;20033;-70
2022/06/28 11:34:25;;;;;;;8.93;2.05;;;;;;;;;;5055144;28;20056;-70
2022/06/28 11:36:54;;;;;;;7.13;1.80;;;;;;;;;;5069564;28;20064;-70
2022/06/28 11:39:22;;;;;;;8.20;2.30;;;;;;;;;;5064893;28;20371;-71
2022/06/28 11:41:49;;;;;;;28.05;2.83;;;;;;;;;;5066468;28;20031;-70
2022/06/28 11:44:16;;;;;;;7.85;2.03;;;;;;;;;;5016947;28;20028;-69
2022/06/28 11:46:42;;;;;;;7.43;1.58;;;;;;;;;;5042535;28;20541;-69
2022/06/28 11:49:09;;;;;;;4.47;1.48;;;;;;;;;;5039250;28;20103;-69
2022/06/28 11:51:35;;;;;;;9.23;1.83;;;;;;;;;;5047951;28;20565;-69
2022/06/28 11:54:06;;;;;;;7.78;1.33;;;;;;;;;;5011440;28;20648;-69
2022/06/28 11:56:42;;;;;;;8.40;1.40;;;;;;;;;;5042297;28;20022;-69
2022/06/28 11:59:08;;;;;;;8.00;1.60;;;;;;;;;;5046673;28;20040;-73
2022/06/28 12:01:38;;;;;;;5.30;1.33;;;;;;;;;;5046835;28;20407;-69
2022/06/28 12:04:06;;;;;;;6.63;1.70;;;;;;;;;;5049294;28;20034;-70
2022/06/28 12:06:33;;;;;;;10.25;1.70;;;;;;;;;;5047457;28;20041;-69
2022/06/28 12:09:00;;;;;;;6.85;1.42;;;;;;;;;;5010393;28;20457;-70
2022/06/28 12:11:31;;;;;;;7.82;1.35;;;;;;;;;;5041486;28;20030;-70
2022/06/28 12:13:57;;;;;;;6.75;1.35;;;;;;;;;;5044996;28;20033;-71
2022/06/28 12:16:24;;;;;;;10.07;1.60;;;;;;;;;;5045888;28;20021;-69
2022/06/28 12:18:53;;;;;;;13.30;1.77;;;;;;;;;;5045518;28;20075;-70
2022/06/28 12:21:20;;;;;;;5.13;1.25;;;;;;;;;;5046458;28;20368;-69
2022/06/28 12:23:50;;;;;;;6.45;1.23;;;;;;;;;;5024782;28;20029;-70
2022/06/28 12:26:16;;;;;;;;;;;;;;;;;;5042451;28;20025;-70
2022/06/28 12:28:42;;;;;;;6.50;1.45;;;;;;;;;;5041974;28;19916;-71
2022/06/28 12:31:08;;;;;;;7.32;1.58;;;;;;;;;;5043785;28;20382;-70
2022/06/28 12:33:34;;;;;;;8.93;1.30;;;;;;;;;;5027757;28;20134;-71
2022/06/28 12:36:00;;;;;;;5.80;1.20;;;;;;;;;;5042983;28;20611;-69
2022/06/28 12:38:26;;;;;;;6.68;1.30;;;;;;;;;;5042419;28;20103;-71
2022/06/28 12:40:52;;;;;;;9.45;1.60;;;;;;;;;;5042842;28;20517;-71
2022/06/28 12:43:18;;;;;;;10.13;2.17;;;;;;;;;;5041602;28;20519;-71
2022/06/28 12:45:44;;;;;;;4.60;1.40;;;;;;;;;;5022130;28;20022;-72
2022/06/28 12:48:10;;;;;;;5.93;1.60;;;;;;;;;;5010722;28;20090;-71
2022/06/28 12:50:36;;;;;;;10.63;1.85;;;;;;;;;;5027533;28;20037;-70
2022/06/28 12:53:03;;;;;;;7.35;1.70;;;;;;;;;;5041137;28;20036;-72
2022/06/28 12:55:29;;;;;;;7.28;1.60;;;;;;;;;;5022972;28;20030;-71
2022/06/28 12:57:55;;;;;;;5.15;1.20;;;;;;;;;;5023408;28;20041;-72
2022/06/28 13:00:21;;;;;;;4.50;1.15;;;;;;;;;;5047562;28;20120;-73
2022/06/28 13:02:47;;;;;;;5.70;1.10;;;;;;;;;;5021863;28;20029;-72
2022/06/28 13:05:13;;;;;;;4.25;1.27;;;;;;;;;;5046678;28;20025;-73
2022/06/28 13:07:41;;;;;;;7.50;1.50;;;;;;;;;;5043427;28;20294;-72
2022/06/28 13:10:08;;;;;;;6.60;1.30;;;;;;;;;;5019869;28;20021;-72
2022/06/28 13:12:34;;;;;;;7.03;1.75;;;;;;;;;;5024906;28;20028;-67
2022/06/28 13:15:01;;;;;;;5.93;1.65;;;;;;;;;;5043987;28;20037;-68
2022/06/28 13:17:27;;;;;;;4.45;1.40;;;;;;;;;;5021674;28;20029;-67
2022/06/28 13:19:53;;;;;;;7.97;1.60;;;;;;;;;;5043444;28;20029;-68
2022/06/28 13:22:19;;;;;;;6.35;1.50;;;;;;;;;;5042174;28;20093;-67
2022/06/28 13:24:45;;;;;;;4.78;1.40;;;;;;;;;;5043356;28;20112;-67
2022/06/28 13:27:11;;;;;;;5.65;1.67;;;;;;;;;;5039174;28;20084;-68
2022/06/28 13:29:37;;;;;;;11.70;1.80;;;;;;;;;;5046794;28;20033;-67
2022/06/28 13:32:03;;;;;;;9.23;1.52;;;;;;;;;;5042906;28;20052;-67
2022/06/28 13:34:30;;;;;;;7.82;1.67;;;;;;;;;;5043671;28;20029;-67
2022/06/28 13:36:56;;;;;;;8.73;2.05;;;;;;;;;;5045231;28;20129;-66
2022/06/28 13:39:23;;;;;;;7.10;1.60;;;;;;;;;;5046173;28;20082;-66
2022/06/28 13:41:49;;;;;;;6.28;1.92;;;;;;;;;;5044772;28;20029;-66
2022/06/28 13:44:16;;;;;;;7.22;1.80;;;;;;;;;;5044832;28;20148;-66
2022/06/28 13:46:45;;;;;;;8.52;2.10;;;;;;;;;;5044561;28;20041;-66
2022/06/28 13:49:11;;;;;;;6.60;1.67;;;;;;;;;;5044581;28;20033;-66
2022/06/28 13:51:37;;;;;;;8.38;1.98;;;;;;;;;;5043487;28;20028;-65
2022/06/28 13:54:04;;;;;;;5.88;1.80;;;;;;;;;;5048667;28;20029;-66
2022/06/28 13:56:32;;;;;;;5.63;1.75;;;;;;;;;;5036659;28;20029;-68
2022/06/28 13:58:58;;;;;;;10.23;2.40;;;;;;;;;;5043946;28;20025;-67
2022/06/28 14:01:24;;;;;;;19.67;2.72;;;;;;;;;;5043559;28;20120;-67
2022/06/28 14:03:50;;;;;;;10.38;2.00;;;;;;;;;;5042672;28;20054;-66
2022/06/28 14:06:16;;;;;;;15.45;3.20;;;;;;;;;;5042128;28;20506;-67
2022/06/28 14:08:42;;;;;;;9.43;2.20;;;;;;;;;;5040545;28;20036;-67
2022/06/28 14:11:09;;;;;;;4.90;1.73;;;;;;;;;;5044440;28;20030;-67
2022/06/28 14:13:35;;;;;;;7.43;1.95;;;;;;;;;;5042605;28;20025;-68
2022/06/28 14:16:01;;;;;;;9.15;1.70;;;;;;;;;;5043987;28;20148;-70
2022/06/28 14:18:27;;;;;;;11.10;2.55;;;;;;;;;;5049107;28;20052;-68
2022/06/28 14:20:53;;;;;;;9.45;2.25;;;;;;;;;;5050254;28;20087;-67
2022/06/28 14:23:19;;;;;;;7.30;2.22;;;;;;;;;;5049276;28;20144;-67
2022/06/28 14:25:45;;;;;;;7.68;2.15;;;;;;;;;;5048549;28;20602;-69
2022/06/28 14:28:11;;;;;;;8.00;2.10;;;;;;;;;;5049225;28;20023;-68
2022/06/28 14:30:38;;;;;;;9.35;2.50;;;;;;;;;;5043876;28;20029;-67
2022/06/28 14:33:04;;;;;;;6.63;1.98;;;;;;;;;;5050514;28;20029;-67
2022/06/28 14:35:31;;;;;;;7.95;2.10;;;;;;;;;;5049148;28;20060;-67
2022/06/28 14:37:57;;;;;;;5.90;1.77;;;;;;;;;;5046746;28;20362;-67
2022/06/28 14:40:23;;;;;;;9.35;1.70;;;;;;;;;;5051442;28;20064;-67
2022/06/28 14:42:49;;;;;;;10.55;1.90;;;;;;;;;;5052707;28;20053;-67
2022/06/28 14:45:15;;;;;;;5.00;1.80;;;;;;;;;;5047134;28;20037;-67
2022/06/28 14:47:42;;;;;;;7.32;2.10;;;;;;;;;;5049772;28;20037;-68